createdAt,value
2019-02-20T00:00:24.708Z,6.33
2019-02-20T00:02:55.727Z,6.20
2019-02-20T00:05:26.502Z,7.28
2019-02-20T00:07:58.605Z,6.47
2019-02-20T00:10:29.209Z,6.10
2019-02-20T00:13:06.221Z,7.00
2019-02-20T00:15:39.400Z,6.53
2019-02-20T00:18:08.726Z,6.87
2019-02-20T00:20:37.616Z,7.05
2019-02-20T00:23:09.291Z,6.85
2019-02-20T00:25:39.352Z,8.05
2019-02-20T00:28:11.043Z,7.20
2019-02-20T00:30:43.929Z,7.03
2019-02-20T00:33:12.806Z,6.72
2019-02-20T00:35:47.370Z,7.15
2019-02-20T00:38:18.346Z,6.85
2019-02-20T00:40:46.892Z,6.97
2019-02-20T00:43:15.798Z,7.50
2019-02-20T00:46:08.434Z,7.22
2019-02-20T00:48:46.114Z,7.10
2019-02-20T00:51:29.336Z,7.30
2019-02-20T00:54:02.731Z,6.75
2019-02-20T00:56:35.228Z,7.58
2019-02-20T00:59:04.610Z,6.35
2019-02-20T01:01:36.993Z,6.87
2019-02-20T01:04:09.780Z,6.80
2019-02-20T01:06:38.699Z,7.43
2019-02-20T01:09:09.076Z,7.15
2019-02-20T01:11:40.880Z,6.75
2019-02-20T01:14:13.181Z,6.45
2019-02-20T01:16:45.528Z,7.03
2019-02-20T01:19:14.285Z,6.75
2019-02-20T01:21:43.205Z,7.10
2019-02-20T01:24:17.374Z,6.08
2019-02-20T01:26:46.292Z,5.92
2019-02-20T01:29:15.052Z,6.67
2019-02-20T01:31:51.846Z,6.45
2019-02-20T01:34:24.214Z,5.58
2019-02-20T01:36:53.139Z,5.85
2019-02-20T01:39:25.574Z,5.42
2019-02-20T01:41:59.243Z,5.67
2019-02-20T01:46:57.535Z,6.08
2019-02-20T01:49:27.736Z,5.85
2019-02-20T01:51:56.904Z,5.72
2019-02-20T01:54:35.200Z,5.95
2019-02-20T01:57:07.227Z,5.87
2019-02-20T01:59:36.156Z,6.97
2019-02-20T02:02:05.591Z,6.83
2019-02-20T02:04:38.917Z,7.47
2019-02-20T02:07:07.887Z,6.22
2019-02-20T02:09:40.325Z,6.95
2019-02-20T02:12:10.560Z,6.67
2019-02-20T02:14:42.742Z,6.67
2019-02-20T02:17:16.727Z,7.92
2019-02-20T02:19:48.717Z,7.08
2019-02-20T02:22:17.316Z,7.45
2019-02-20T02:24:46.292Z,8.38
2019-02-20T02:27:22.879Z,7.72
2019-02-20T02:29:58.074Z,7.65
2019-02-20T02:32:27.115Z,7.95
2019-02-20T02:35:00.722Z,7.78
2019-02-20T02:37:29.992Z,8.18
2019-02-20T02:39:59.226Z,9.10
2019-02-20T02:42:28.792Z,8.80
2019-02-20T02:45:02.337Z,8.70
2019-02-20T02:47:36.303Z,10.15
2019-02-20T02:50:04.940Z,9.65
2019-02-20T02:52:33.909Z,10.15
2019-02-20T02:55:05.856Z,9.53
2019-02-20T02:57:39.497Z,11.12
2019-02-20T03:02:38.477Z,9.70
2019-02-20T03:05:11.758Z,9.28
2019-02-20T03:07:42.391Z,12.23
2019-02-20T03:10:14.589Z,10.65
2019-02-20T03:12:46.678Z,10.58
2019-02-20T03:15:17.608Z,11.10
2019-02-20T03:17:47.286Z,11.48
2019-02-20T03:20:17.920Z,10.75
2019-02-20T03:22:49.758Z,11.00
2019-02-20T03:25:19.102Z,12.50
2019-02-20T03:27:50.925Z,10.45
2019-02-20T03:30:23.519Z,11.30
2019-02-20T03:32:57.365Z,11.57
2019-02-20T03:35:29.525Z,11.95
2019-02-20T03:38:03.084Z,12.33
2019-02-20T03:40:36.843Z,11.83
2019-02-20T03:43:05.571Z,11.30
2019-02-20T03:45:34.213Z,12.35
2019-02-20T03:48:08.384Z,11.80
2019-02-20T03:50:38.543Z,12.07
2019-02-20T03:53:10.898Z,13.35
2019-02-20T03:55:43.384Z,12.90
2019-02-20T03:58:12.650Z,13.30
2019-02-20T04:00:43.216Z,13.43
2019-02-20T04:03:15.254Z,14.58
2019-02-20T04:05:46.015Z,13.53
2019-02-20T04:08:15.864Z,13.13
2019-02-20T04:10:47.605Z,12.33
2019-02-20T04:13:22.585Z,14.43
2019-02-20T04:15:54.575Z,14.10
2019-02-20T04:18:25.764Z,13.32
2019-02-20T04:20:57.821Z,14.55
2019-02-20T04:23:30.746Z,13.32
2019-02-20T04:26:09.853Z,14.68
2019-02-20T04:28:39.815Z,15.25
2019-02-20T04:31:10.430Z,15.45
2019-02-20T04:33:41.391Z,14.70
2019-02-20T04:36:14.160Z,13.93
2019-02-20T04:38:42.976Z,14.43
2019-02-20T04:41:13.856Z,14.95
2019-02-20T04:43:47.333Z,13.83
2019-02-20T04:46:16.977Z,13.95
2019-02-20T04:48:47.760Z,13.48
2019-02-20T04:51:24.122Z,14.53
2019-02-20T04:53:53.186Z,15.35
2019-02-20T04:56:22.380Z,16.27
2019-02-20T04:58:58.565Z,15.40
2019-02-20T05:01:29.741Z,14.85
2019-02-20T05:03:58.288Z,15.20
2019-02-20T05:06:26.879Z,15.53
2019-02-20T05:08:59.284Z,14.95
2019-02-20T05:11:31.826Z,14.65
2019-02-20T05:14:02.516Z,16.10
2019-02-20T05:16:32.768Z,16.00
2019-02-20T05:19:09.807Z,16.62
2019-02-20T05:21:42.430Z,16.10
2019-02-20T05:24:11.332Z,16.37
2019-02-20T05:26:42.270Z,15.05
2019-02-20T05:29:11.361Z,14.00
2019-02-20T05:31:45.200Z,16.60
2019-02-20T05:34:14.155Z,15.50
2019-02-20T05:36:42.705Z,15.03
2019-02-20T05:39:12.904Z,15.30
2019-02-20T05:41:43.352Z,16.32
2019-02-20T05:44:15.973Z,16.23
2019-02-20T05:46:46.624Z,15.98
2019-02-20T05:49:15.682Z,15.55
2019-02-20T05:51:48.103Z,16.50
2019-02-20T05:54:22.556Z,15.78
2019-02-20T05:56:54.765Z,15.98
2019-02-20T05:59:28.249Z,16.55
2019-02-20T06:01:58.797Z,17.27
2019-02-20T06:04:29.415Z,16.20
2019-02-20T06:06:58.524Z,16.57
2019-02-20T06:09:31.418Z,15.43
2019-02-20T06:12:03.618Z,16.50
2019-02-20T06:14:37.723Z,16.17
2019-02-20T06:17:09.768Z,16.25
2019-02-20T06:19:40.395Z,16.23
2019-02-20T06:22:15.241Z,15.75
2019-02-20T06:24:50.254Z,15.63
2019-02-20T06:27:20.939Z,16.07
2019-02-20T06:29:49.893Z,15.35
2019-02-20T06:32:24.001Z,15.32
2019-02-20T06:35:37.227Z,14.80
2019-02-20T06:38:36.596Z,15.68
2019-02-20T06:41:53.051Z,15.68
2019-02-20T06:44:58.657Z,15.78
2019-02-20T06:47:53.758Z,16.82
2019-02-20T06:51:04.566Z,16.67
2019-02-20T06:54:05.826Z,16.10
2019-02-20T06:56:54.619Z,17.35
2019-02-20T06:59:23.556Z,15.58
2019-02-20T07:01:56.387Z,15.85
2019-02-20T07:04:25.244Z,16.00
2019-02-20T07:07:37.315Z,15.75
2019-02-20T07:10:51.920Z,17.35
2019-02-20T07:13:43.963Z,16.97
2019-02-20T07:17:03.085Z,14.35
2019-02-20T07:20:13.679Z,14.40
2019-02-20T07:22:50.617Z,13.90
2019-02-20T07:25:28.705Z,13.90
2019-02-20T07:28:27.940Z,13.80
2019-02-20T07:30:58.912Z,13.83
2019-02-20T07:33:31.830Z,13.43
2019-02-20T07:36:02.033Z,15.05
2019-02-20T07:38:32.877Z,13.50
2019-02-20T07:41:03.256Z,12.65
2019-02-20T07:43:34.939Z,15.15
2019-02-20T07:46:03.646Z,13.70
2019-02-20T07:48:32.717Z,13.45
2019-02-20T07:51:01.516Z,12.98
2019-02-20T07:53:31.572Z,13.35
2019-02-20T07:56:00.134Z,12.68
2019-02-20T07:58:30.694Z,12.37
2019-02-20T08:00:59.647Z,12.95
2019-02-20T08:03:31.939Z,13.43
2019-02-20T08:06:02.569Z,12.40
2019-02-20T08:08:32.495Z,13.78
2019-02-20T08:11:02.160Z,13.90
2019-02-20T08:13:39.088Z,13.10
2019-02-20T08:16:05.519Z,12.85
2019-02-20T08:18:35.765Z,13.10
2019-02-20T08:21:04.721Z,11.93
2019-02-20T08:23:37.891Z,12.80
2019-02-20T08:26:08.079Z,12.65
2019-02-20T08:28:38.228Z,13.00
2019-02-20T08:31:06.782Z,13.00
2019-02-20T08:33:36.708Z,12.40
2019-02-20T08:36:05.850Z,12.40
2019-02-20T08:38:34.433Z,12.35
2019-02-20T08:41:03.128Z,11.48
2019-02-20T08:43:33.783Z,12.85
2019-02-20T08:46:04.087Z,12.25
2019-02-20T08:48:33.175Z,12.37
2019-02-20T08:51:02.027Z,11.33
2019-02-20T08:53:30.771Z,12.15
2019-02-20T08:56:04.377Z,10.78
2019-02-20T09:01:06.097Z,11.73
2019-02-20T09:03:35.346Z,11.12
2019-02-20T09:06:04.610Z,11.03
2019-02-20T09:08:33.942Z,10.78
2019-02-20T09:11:02.527Z,11.05
2019-02-20T09:13:35.378Z,11.12
2019-02-20T09:16:04.213Z,11.33
2019-02-20T09:18:38.796Z,10.32
2019-02-20T09:21:15.129Z,10.93
2019-02-20T09:23:50.305Z,10.68
2019-02-20T09:26:21.050Z,9.83
2019-02-20T09:28:50.742Z,10.78
2019-02-20T09:31:22.396Z,10.82
2019-02-20T09:33:53.170Z,9.45
2019-02-20T09:36:27.174Z,10.32
2019-02-20T09:38:56.096Z,8.83
2019-02-20T09:41:24.950Z,8.20
2019-02-20T09:43:55.481Z,9.25
2019-02-20T09:46:25.911Z,8.70
2019-02-20T09:48:56.131Z,8.53
2019-02-20T09:51:26.676Z,8.00
2019-02-20T09:53:58.907Z,8.18
2019-02-20T09:56:29.473Z,8.95
2019-02-20T09:58:59.620Z,7.95
2019-02-20T10:01:29.900Z,8.15
2019-02-20T10:03:59.642Z,7.90
2019-02-20T10:06:28.780Z,7.53
2019-02-20T10:09:00.665Z,6.90
2019-02-20T10:11:30.182Z,7.53
2019-02-20T10:14:00.826Z,7.08
2019-02-20T10:16:32.668Z,7.97
2019-02-20T10:19:02.565Z,6.85
2019-02-20T10:21:34.695Z,7.05
2019-02-20T10:24:06.290Z,7.25
2019-02-20T10:26:36.999Z,6.70
2019-02-20T10:29:09.311Z,6.95
2019-02-20T10:31:40.050Z,7.72
2019-02-20T10:34:08.943Z,6.67
2019-02-20T10:36:37.747Z,6.95
2019-02-20T10:39:06.915Z,6.97
2019-02-20T10:41:40.371Z,6.72
2019-02-20T10:44:12.597Z,5.85
2019-02-20T10:46:44.175Z,6.80
2019-02-20T10:49:14.672Z,6.83
2019-02-20T10:51:44.900Z,5.65
2019-02-20T10:54:13.443Z,7.03
2019-02-20T10:56:42.007Z,5.28
2019-02-20T10:59:12.578Z,5.78
2019-02-20T11:01:41.522Z,5.25
2019-02-20T11:04:10.240Z,5.60
2019-02-20T11:06:44.221Z,4.87
2019-02-20T11:09:14.672Z,6.25
2019-02-20T11:11:44.564Z,4.90
2019-02-20T11:14:15.229Z,5.33
2019-02-20T11:16:45.552Z,5.20
2019-02-20T11:19:17.502Z,4.12
2019-02-20T11:21:50.657Z,4.37
2019-02-20T11:24:24.882Z,4.50
2019-02-20T11:26:55.597Z,4.50
2019-02-20T11:29:26.135Z,4.50
2019-02-20T11:31:58.342Z,4.53
2019-02-20T11:34:29.041Z,4.78
2019-02-20T11:36:59.584Z,4.12
2019-02-20T11:39:37.703Z,4.55
2019-02-20T11:42:04.858Z,4.30
2019-02-20T11:44:33.411Z,5.03
2019-02-20T11:47:03.435Z,5.30
2019-02-20T11:49:34.134Z,5.12
2019-02-20T11:52:04.905Z,5.03
2019-02-20T11:54:35.428Z,5.00
2019-02-20T11:57:07.601Z,5.05
2019-02-20T11:59:38.517Z,4.55
2019-02-20T12:02:10.842Z,4.83
2019-02-20T12:04:39.568Z,4.60
2019-02-20T12:07:08.289Z,4.50
2019-02-20T12:09:38.809Z,4.87
2019-02-20T12:12:09.522Z,4.50
2019-02-20T12:14:40.414Z,5.15
2019-02-20T12:17:10.729Z,4.42
2019-02-20T12:19:40.831Z,4.22
2019-02-20T12:22:10.110Z,4.50
2019-02-20T12:24:38.657Z,3.85
2019-02-20T12:30:26.339Z,4.37
2019-02-20T12:32:56.868Z,4.53
2019-02-20T12:35:25.744Z,4.22
2019-02-20T12:37:54.451Z,4.10
2019-02-20T12:40:24.937Z,3.70
2019-02-20T12:42:53.892Z,4.00
2019-02-20T12:45:22.431Z,4.72
2019-02-20T12:47:53.671Z,3.77
2019-02-20T12:50:22.398Z,4.12
2019-02-20T12:52:51.313Z,3.95
2019-02-20T12:55:20.019Z,4.17
2019-02-20T12:57:50.119Z,4.15
2019-02-20T13:00:19.964Z,3.87
2019-02-20T13:02:50.520Z,3.45
2019-02-20T13:05:21.529Z,4.03
2019-02-20T13:07:50.804Z,3.98
2019-02-20T13:10:22.430Z,3.58
2019-02-20T13:12:52.598Z,3.90
2019-02-20T13:15:21.827Z,4.28
2019-02-20T13:17:53.763Z,4.78
2019-02-20T13:20:22.591Z,4.83
2019-02-20T13:22:52.842Z,5.17
2019-02-20T13:25:23.726Z,4.15
2019-02-20T13:27:56.596Z,3.67
2019-02-20T13:30:28.201Z,4.60
2019-02-20T13:32:56.961Z,4.00
2019-02-20T13:35:27.753Z,4.10
2019-02-20T13:38:00.014Z,4.83
2019-02-20T13:40:28.917Z,4.22
2019-02-20T13:42:59.031Z,4.53
2019-02-20T13:45:33.173Z,4.45
2019-02-20T13:48:02.804Z,4.12
2019-02-20T13:50:32.083Z,4.75
2019-02-20T13:53:01.128Z,4.47
2019-02-20T13:55:34.522Z,5.12
2019-02-20T13:58:03.520Z,4.85
2019-02-20T14:00:33.814Z,4.33
2019-02-20T14:03:03.092Z,5.75
2019-02-20T14:05:33.393Z,6.30
2019-02-20T14:08:02.289Z,5.85
2019-02-20T14:10:33.612Z,6.17
2019-02-20T14:13:02.839Z,6.40
2019-02-20T14:15:33.390Z,5.62
2019-02-20T14:18:04.232Z,6.00
2019-02-20T14:20:34.593Z,5.72
2019-02-20T14:23:03.319Z,6.00
2019-02-20T14:25:36.432Z,6.08
2019-02-20T14:28:05.175Z,6.33
2019-02-20T14:30:33.693Z,6.78
2019-02-20T14:33:02.881Z,7.80
2019-02-20T14:35:31.762Z,7.35
2019-02-20T14:38:00.649Z,7.37
2019-02-20T14:40:32.442Z,7.97
2019-02-20T14:43:01.411Z,7.97
2019-02-20T14:45:34.832Z,8.05
2019-02-20T14:48:07.411Z,7.50
2019-02-20T14:50:35.975Z,7.45
2019-02-20T14:53:08.143Z,7.22
2019-02-20T14:55:41.697Z,7.50
2019-02-20T14:58:15.457Z,7.33
2019-02-20T15:00:45.773Z,7.75
2019-02-20T15:03:16.226Z,7.70
2019-02-20T15:05:48.008Z,8.13
2019-02-20T15:08:19.930Z,9.50
2019-02-20T15:10:50.409Z,8.35
2019-02-20T15:13:24.910Z,8.30
2019-02-20T15:15:54.845Z,7.72
2019-02-20T15:18:25.286Z,8.30
2019-02-20T15:20:56.146Z,7.65
2019-02-20T15:23:27.191Z,7.80
2019-02-20T15:25:58.123Z,8.28
2019-02-20T15:28:30.482Z,8.48
2019-02-20T15:31:02.979Z,7.87
2019-02-20T15:33:35.417Z,8.53
2019-02-20T15:36:04.117Z,7.95
2019-02-20T15:38:34.699Z,8.05
2019-02-20T15:41:05.520Z,9.28
2019-02-20T15:43:35.091Z,8.78
2019-02-20T15:46:05.785Z,9.20
2019-02-20T15:48:36.600Z,8.93
2019-02-20T15:51:09.880Z,8.83
2019-02-20T15:53:38.770Z,9.15
2019-02-20T15:56:09.651Z,8.20
2019-02-20T15:58:40.566Z,9.73
2019-02-20T16:01:11.535Z,9.43
2019-02-20T16:03:44.311Z,9.65
2019-02-20T16:06:15.338Z,9.58
2019-02-20T16:08:46.059Z,9.68
2019-02-20T16:11:16.473Z,9.40
2019-02-20T16:13:47.275Z,8.83
2019-02-20T16:16:19.283Z,9.35
2019-02-20T16:18:52.996Z,9.90
2019-02-20T16:21:26.904Z,10.20
2019-02-20T16:26:31.475Z,10.03
2019-02-20T16:29:04.195Z,9.63
2019-02-20T16:31:35.004Z,8.93
2019-02-20T16:34:04.167Z,9.73
2019-02-20T16:36:37.817Z,10.10
2019-02-20T16:39:09.114Z,10.13
2019-02-20T16:41:39.663Z,11.30
2019-02-20T16:44:10.229Z,11.18
2019-02-20T16:46:39.486Z,10.98
2019-02-20T16:49:10.444Z,11.73
2019-02-20T16:51:39.557Z,10.53
2019-02-20T16:54:10.498Z,11.63
2019-02-20T16:56:39.045Z,10.58
2019-02-20T16:59:12.621Z,10.40
2019-02-20T17:01:43.783Z,12.15
2019-02-20T17:04:17.355Z,14.73
2019-02-20T17:06:46.089Z,16.12
2019-02-20T17:09:15.484Z,18.40
2019-02-20T17:11:45.437Z,15.75
2019-02-20T17:14:15.390Z,15.08
2019-02-20T17:16:44.508Z,12.80
2019-02-20T17:19:13.229Z,12.28
2019-02-20T17:21:46.055Z,13.43
2019-02-20T17:24:15.367Z,12.47
2019-02-20T17:26:43.932Z,13.50
2019-02-20T17:29:14.019Z,13.68
2019-02-20T17:31:45.121Z,12.53
2019-02-20T17:34:14.242Z,14.23
2019-02-20T17:36:44.473Z,12.68
2019-02-20T17:39:13.625Z,13.75
2019-02-20T17:41:42.369Z,12.30
2019-02-20T17:44:12.589Z,13.15
2019-02-20T17:46:42.809Z,12.65
2019-02-20T17:49:11.750Z,12.10
2019-02-20T17:51:40.651Z,12.75
2019-02-20T17:54:09.372Z,12.65
2019-02-20T17:56:37.959Z,13.25
2019-02-20T17:59:06.828Z,13.28
2019-02-20T18:01:37.407Z,13.08
2019-02-20T18:04:07.326Z,13.72
2019-02-20T18:06:36.451Z,13.20
2019-02-20T18:09:09.765Z,14.20
2019-02-20T18:11:40.415Z,15.48
2019-02-20T18:14:09.909Z,15.25
2019-02-20T18:16:40.514Z,15.32
2019-02-20T18:19:09.251Z,14.55
2019-02-20T18:21:39.116Z,16.97
2019-02-20T18:24:08.119Z,16.45
2019-02-20T18:26:36.665Z,15.85
2019-02-20T18:29:05.205Z,15.48
2019-02-20T18:31:38.239Z,16.25
2019-02-20T18:34:06.652Z,15.03
2019-02-20T18:36:37.313Z,16.27
2019-02-20T18:39:08.301Z,16.23
2019-02-20T18:41:37.914Z,15.95
2019-02-20T18:44:06.494Z,17.87
2019-02-20T18:46:35.399Z,17.17
2019-02-20T18:49:04.643Z,18.75
2019-02-20T18:51:35.046Z,17.45
2019-02-20T18:54:03.638Z,19.73
2019-02-20T18:56:34.150Z,19.50
2019-02-20T18:59:03.319Z,18.17
2019-02-20T19:01:34.216Z,18.55
2019-02-20T19:04:02.804Z,17.45
2019-02-20T19:06:35.931Z,16.87
2019-02-20T19:09:20.400Z,17.35
2019-02-20T19:12:21.683Z,17.75
2019-02-20T19:15:26.918Z,17.40
2019-02-20T19:18:20.249Z,17.45
2019-02-20T19:21:12.882Z,18.67
2019-02-20T19:24:33.983Z,17.95
2019-02-20T19:27:45.740Z,17.57
2019-02-20T19:30:50.901Z,17.23
2019-02-20T19:33:53.329Z,19.60
2019-02-20T19:36:59.270Z,18.52
2019-02-20T19:39:40.898Z,17.40
2019-02-20T19:42:35.160Z,17.17
2019-02-20T19:48:26.681Z,20.10
2019-02-20T19:51:41.190Z,18.35
2019-02-20T19:54:28.996Z,19.02
2019-02-20T19:57:24.699Z,20.32
2019-02-20T20:00:16.971Z,19.12
2019-02-20T20:03:30.964Z,19.95
2019-02-20T20:06:40.779Z,17.83
2019-02-20T20:09:29.603Z,18.35
2019-02-20T20:12:22.451Z,21.45
2019-02-20T20:15:05.797Z,20.72
2019-02-20T20:18:15.695Z,20.95
2019-02-20T20:21:14.420Z,19.87
2019-02-20T20:24:19.017Z,20.95
2019-02-20T20:30:04.710Z,19.37
2019-02-20T20:33:06.520Z,19.80
2019-02-20T20:36:08.387Z,19.02
2019-02-20T20:39:36.447Z,19.90
2019-02-20T20:42:48.482Z,19.50
2019-02-20T20:46:07.173Z,21.77
2019-02-20T20:49:09.747Z,23.05
2019-02-20T20:52:15.703Z,25.17
2019-02-20T20:55:19.498Z,27.17
2019-02-20T20:58:15.261Z,23.32
2019-02-20T21:01:25.336Z,20.80
2019-02-20T21:04:15.002Z,19.98
2019-02-20T21:06:56.131Z,21.70
2019-02-20T21:09:53.343Z,20.88
2019-02-20T21:12:48.444Z,21.33
2019-02-20T21:15:53.460Z,22.77
2019-02-20T21:18:44.940Z,20.48
2019-02-20T21:21:31.355Z,21.33
2019-02-20T21:24:39.858Z,22.55
2019-02-20T21:27:55.769Z,21.95
2019-02-20T21:31:15.170Z,20.77
2019-02-20T21:34:35.855Z,21.77
2019-02-20T21:37:37.695Z,22.15
2019-02-20T21:40:31.266Z,22.25
2019-02-20T21:43:14.403Z,22.27
2019-02-20T21:46:15.152Z,24.07
2019-02-20T21:49:28.880Z,31.52
2019-02-20T21:52:34.956Z,23.73
2019-02-20T21:55:31.358Z,22.02
2019-02-20T21:58:22.786Z,20.23
2019-02-20T22:01:27.868Z,22.62
2019-02-20T22:04:18.433Z,24.43
2019-02-20T22:07:32.895Z,23.25
2019-02-20T22:10:24.126Z,23.20
2019-02-20T22:13:27.703Z,23.07
2019-02-20T22:16:15.357Z,25.37
2019-02-20T22:19:16.658Z,26.52
2019-02-20T22:22:10.439Z,27.80
2019-02-20T22:25:16.084Z,24.50
2019-02-20T22:28:19.339Z,26.07
2019-02-20T22:31:29.159Z,22.87
2019-02-20T22:34:19.119Z,26.05
2019-02-20T22:37:31.375Z,23.60
2019-02-20T22:40:33.412Z,24.15
2019-02-20T22:43:40.695Z,25.35
2019-02-20T22:46:22.200Z,24.32
2019-02-20T22:49:01.780Z,25.20
2019-02-20T22:52:08.943Z,24.77
2019-02-20T22:55:23.858Z,26.75
2019-02-20T22:58:03.188Z,24.90
2019-02-20T23:01:12.594Z,24.35
2019-02-20T23:04:21.747Z,26.17
2019-02-20T23:07:30.448Z,24.67
2019-02-20T23:11:06.858Z,26.17
2019-02-20T23:14:19.241Z,24.90
2019-02-20T23:16:50.637Z,28.23
2019-02-20T23:19:19.523Z,26.90
2019-02-20T23:21:51.263Z,27.13
2019-02-20T23:24:23.702Z,28.15
2019-02-20T23:26:57.085Z,28.23
2019-02-20T23:29:26.130Z,25.85
2019-02-20T23:31:54.746Z,27.52
2019-02-20T23:34:24.794Z,25.25
2019-02-20T23:36:55.143Z,26.80
2019-02-20T23:39:23.696Z,28.87
2019-02-20T23:41:52.304Z,26.68
2019-02-20T23:44:20.914Z,28.00
2019-02-20T23:46:51.049Z,29.45
2019-02-20T23:49:19.628Z,31.70
2019-02-20T23:51:51.869Z,33.10
2019-02-20T23:54:23.343Z,31.10
2019-02-20T23:56:53.611Z,31.73
2019-02-20T23:59:25.261Z,31.95
